sensor_id;sensor_type;location;lat;lon;timestamp;temperature;humidity
7014;DHT22;3547;50.774;12.918;2024-03-07T00:02:30;3.00;1.00
7014;DHT22;3547;50.774;12.918;2024-03-07T00:04:56;3.00;1.00
7014;DHT22;3547;50.774;12.918;2024-03-07T00:07:22;3.10;1.00
7014;DHT22;3547;50.774;12.918;2024-03-07T00:09:48;3.10;1.00
7014;DHT22;3547;50.774;12.918;2024-03-07T00:12:14;3.10;1.00
7014;DHT22;3547;50.774;12.918;2024-03-07T00:14:40;3.20;1.00
7014;DHT22;3547;50.774;12.918;2024-03-07T00:17:06;3.20;1.00
7014;DHT22;3547;50.774;12.918;2024-03-07T00:19:32;3.20;1.00
7014;DHT22;3547;50.774;12.918;2024-03-07T00:21:59;3.20;1.00
7014;DHT22;3547;50.774;12.918;2024-03-07T00:24:25;3.20;1.00
7014;DHT22;3547;50.774;12.918;2024-03-07T00:26:53;3.20;1.00
7014;DHT22;3547;50.774;12.918;2024-03-07T00:29:19;3.20;1.00
7014;DHT22;3547;50.774;12.918;2024-03-07T00:31:46;3.30;1.00
7014;DHT22;3547;50.774;12.918;2024-03-07T00:34:15;3.30;1.00
7014;DHT22;3547;50.774;12.918;2024-03-07T00:36:43;3.40;1.00
7014;DHT22;3547;50.774;12.918;2024-03-07T00:39:09;3.30;1.00
7014;DHT22;3547;50.774;12.918;2024-03-07T00:41:40;3.30;1.00
7014;DHT22;3547;50.774;12.918;2024-03-07T00:44:08;3.30;1.00
7014;DHT22;3547;50.774;12.918;2024-03-07T00:46:37;3.30;1.00
7014;DHT22;3547;50.774;12.918;2024-03-07T00:49:04;3.30;1.00
7014;DHT22;3547;50.774;12.918;2024-03-07T00:51:31;3.40;1.00
7014;DHT22;3547;50.774;12.918;2024-03-07T00:53:57;3.40;1.00
7014;DHT22;3547;50.774;12.918;2024-03-07T00:56:24;3.40;1.00
7014;DHT22;3547;50.774;12.918;2024-03-07T00:58:51;3.40;1.00
7014;DHT22;3547;50.774;12.918;2024-03-07T01:01:18;3.40;1.00
7014;DHT22;3547;50.774;12.918;2024-03-07T01:03:45;3.40;1.00
7014;DHT22;3547;50.774;12.918;2024-03-07T01:06:11;3.40;1.00
7014;DHT22;3547;50.774;12.918;2024-03-07T01:08:38;3.40;1.00
7014;DHT22;3547;50.774;12.918;2024-03-07T01:11:05;3.50;1.00
7014;DHT22;3547;50.774;12.918;2024-03-07T01:13:39;3.50;1.00
7014;DHT22;3547;50.774;12.918;2024-03-07T01:16:05;3.50;1.00
7014;DHT22;3547;50.774;12.918;2024-03-07T01:18:32;3.50;1.00
7014;DHT22;3547;50.774;12.918;2024-03-07T01:21:00;3.50;1.00
7014;DHT22;3547;50.774;12.918;2024-03-07T01:23:26;3.50;1.00
7014;DHT22;3547;50.774;12.918;2024-03-07T01:25:58;3.50;1.00
7014;DHT22;3547;50.774;12.918;2024-03-07T01:28:25;3.60;1.00
7014;DHT22;3547;50.774;12.918;2024-03-07T01:30:52;3.60;1.00
7014;DHT22;3547;50.774;12.918;2024-03-07T01:33:22;3.60;1.00
7014;DHT22;3547;50.774;12.918;2024-03-07T01:35:48;3.50;1.00
7014;DHT22;3547;50.774;12.918;2024-03-07T01:38:15;3.60;1.00
7014;DHT22;3547;50.774;12.918;2024-03-07T01:40:42;3.50;1.00
7014;DHT22;3547;50.774;12.918;2024-03-07T01:43:09;3.50;1.00
7014;DHT22;3547;50.774;12.918;2024-03-07T01:45:37;3.60;1.00
7014;DHT22;3547;50.774;12.918;2024-03-07T01:48:05;3.60;1.00
7014;DHT22;3547;50.774;12.918;2024-03-07T01:50:33;3.60;1.00
7014;DHT22;3547;50.774;12.918;2024-03-07T01:52:59;3.60;1.00
7014;DHT22;3547;50.774;12.918;2024-03-07T01:55:27;3.70;1.00
7014;DHT22;3547;50.774;12.918;2024-03-07T01:57:57;3.50;1.00
7014;DHT22;3547;50.774;12.918;2024-03-07T02:00:25;3.50;1.00
7014;DHT22;3547;50.774;12.918;2024-03-07T02:02:52;3.60;1.00
7014;DHT22;3547;50.774;12.918;2024-03-07T02:05:22;3.50;1.00
7014;DHT22;3547;50.774;12.918;2024-03-07T02:07:50;3.60;1.00
7014;DHT22;3547;50.774;12.918;2024-03-07T02:10:17;3.60;1.00
7014;DHT22;3547;50.774;12.918;2024-03-07T02:12:44;3.60;1.00
7014;DHT22;3547;50.774;12.918;2024-03-07T02:15:11;3.60;1.00
7014;DHT22;3547;50.774;12.918;2024-03-07T02:17:40;3.60;1.00
7014;DHT22;3547;50.774;12.918;2024-03-07T02:20:07;3.70;1.00
7014;DHT22;3547;50.774;12.918;2024-03-07T02:22:39;3.70;1.00
7014;DHT22;3547;50.774;12.918;2024-03-07T02:25:07;3.70;1.00
7014;DHT22;3547;50.774;12.918;2024-03-07T02:27:36;3.60;1.00
7014;DHT22;3547;50.774;12.918;2024-03-07T02:30:04;3.60;1.00
7014;DHT22;3547;50.774;12.918;2024-03-07T02:32:31;3.60;1.00
7014;DHT22;3547;50.774;12.918;2024-03-07T02:34:58;3.60;1.00
7014;DHT22;3547;50.774;12.918;2024-03-07T02:37:24;3.70;1.00
7014;DHT22;3547;50.774;12.918;2024-03-07T02:39:50;3.60;1.00
7014;DHT22;3547;50.774;12.918;2024-03-07T02:42:17;3.60;1.00
7014;DHT22;3547;50.774;12.918;2024-03-07T02:44:43;3.60;1.00
7014;DHT22;3547;50.774;12.918;2024-03-07T02:47:09;3.60;1.00
7014;DHT22;3547;50.774;12.918;2024-03-07T02:49:35;3.60;1.00
7014;DHT22;3547;50.774;12.918;2024-03-07T02:52:01;3.60;1.00
7014;DHT22;3547;50.774;12.918;2024-03-07T02:54:27;3.60;1.00
7014;DHT22;3547;50.774;12.918;2024-03-07T02:56:54;3.60;1.00
7014;DHT22;3547;50.774;12.918;2024-03-07T02:59:20;3.60;1.00
7014;DHT22;3547;50.774;12.918;2024-03-07T03:01:47;3.60;1.00
7014;DHT22;3547;50.774;12.918;2024-03-07T03:04:13;3.60;1.00
7014;DHT22;3547;50.774;12.918;2024-03-07T03:06:40;3.60;1.00
7014;DHT22;3547;50.774;12.918;2024-03-07T03:09:06;3.60;1.00
7014;DHT22;3547;50.774;12.918;2024-03-07T03:11:32;3.50;1.00
7014;DHT22;3547;50.774;12.918;2024-03-07T03:13:58;3.60;1.00
7014;DHT22;3547;50.774;12.918;2024-03-07T03:16:24;3.60;1.00
7014;DHT22;3547;50.774;12.918;2024-03-07T03:18:50;3.60;1.00
7014;DHT22;3547;50.774;12.918;2024-03-07T03:21:16;3.60;1.00
7014;DHT22;3547;50.774;12.918;2024-03-07T03:23:42;3.50;1.00
7014;DHT22;3547;50.774;12.918;2024-03-07T03:26:08;3.40;1.00
7014;DHT22;3547;50.774;12.918;2024-03-07T03:28:35;3.30;1.00
7014;DHT22;3547;50.774;12.918;2024-03-07T03:31:01;3.30;1.00
7014;DHT22;3547;50.774;12.918;2024-03-07T03:33:27;3.30;1.00
7014;DHT22;3547;50.774;12.918;2024-03-07T03:35:53;3.30;1.00
7014;DHT22;3547;50.774;12.918;2024-03-07T03:38:21;3.20;1.00
7014;DHT22;3547;50.774;12.918;2024-03-07T03:40:47;3.30;1.00
7014;DHT22;3547;50.774;12.918;2024-03-07T03:43:13;3.10;1.00
7014;DHT22;3547;50.774;12.918;2024-03-07T03:45:39;3.20;1.00
7014;DHT22;3547;50.774;12.918;2024-03-07T03:48:05;3.30;1.00
7014;DHT22;3547;50.774;12.918;2024-03-07T03:50:32;3.30;1.00
7014;DHT22;3547;50.774;12.918;2024-03-07T03:52:58;3.40;1.00
7014;DHT22;3547;50.774;12.918;2024-03-07T03:55:27;3.40;1.00
7014;DHT22;3547;50.774;12.918;2024-03-07T03:57:53;3.40;1.00
7014;DHT22;3547;50.774;12.918;2024-03-07T04:00:19;3.40;1.00
7014;DHT22;3547;50.774;12.918;2024-03-07T04:02:48;3.40;1.00
7014;DHT22;3547;50.774;12.918;2024-03-07T04:05:17;3.40;1.00
7014;DHT22;3547;50.774;12.918;2024-03-07T04:07:44;3.30;1.00
7014;DHT22;3547;50.774;12.918;2024-03-07T04:10:12;3.30;1.00
7014;DHT22;3547;50.774;12.918;2024-03-07T04:12:39;3.30;1.00
7014;DHT22;3547;50.774;12.918;2024-03-07T04:15:07;3.30;1.00
7014;DHT22;3547;50.774;12.918;2024-03-07T04:17:35;3.30;1.00
7014;DHT22;3547;50.774;12.918;2024-03-07T04:20:02;3.20;1.00
7014;DHT22;3547;50.774;12.918;2024-03-07T04:22:32;3.20;1.80
7014;DHT22;3547;50.774;12.918;2024-03-07T04:25:00;3.10;2.30
7014;DHT22;3547;50.774;12.918;2024-03-07T04:27:27;3.20;2.90
7014;DHT22;3547;50.774;12.918;2024-03-07T04:29:53;3.20;4.10
7014;DHT22;3547;50.774;12.918;2024-03-07T04:32:21;3.20;6.50
7014;DHT22;3547;50.774;12.918;2024-03-07T04:34:47;3.10;6.80
7014;DHT22;3547;50.774;12.918;2024-03-07T04:37:14;3.20;9.30
7014;DHT22;3547;50.774;12.918;2024-03-07T04:39:41;3.20;9.50
7014;DHT22;3547;50.774;12.918;2024-03-07T04:42:08;3.20;8.00
7014;DHT22;3547;50.774;12.918;2024-03-07T04:44:36;3.30;3.50
7014;DHT22;3547;50.774;12.918;2024-03-07T04:47:09;3.30;5.30
7014;DHT22;3547;50.774;12.918;2024-03-07T04:49:35;3.40;2.20
7014;DHT22;3547;50.774;12.918;2024-03-07T04:52:02;3.30;6.10
7014;DHT22;3547;50.774;12.918;2024-03-07T04:54:30;3.30;8.20
7014;DHT22;3547;50.774;12.918;2024-03-07T04:56:57;3.40;6.50
7014;DHT22;3547;50.774;12.918;2024-03-07T04:59:23;3.40;2.80
7014;DHT22;3547;50.774;12.918;2024-03-07T05:01:50;3.40;7.10
7014;DHT22;3547;50.774;12.918;2024-03-07T05:04:17;3.40;8.20
7014;DHT22;3547;50.774;12.918;2024-03-07T05:06:44;3.40;9.00
7014;DHT22;3547;50.774;12.918;2024-03-07T05:09:13;3.50;7.70
7014;DHT22;3547;50.774;12.918;2024-03-07T05:11:49;3.50;7.70
7014;DHT22;3547;50.774;12.918;2024-03-07T05:14:18;3.50;7.30
7014;DHT22;3547;50.774;12.918;2024-03-07T05:16:45;3.40;9.50
7014;DHT22;3547;50.774;12.918;2024-03-07T05:19:11;3.30;12.90
7014;DHT22;3547;50.774;12.918;2024-03-07T05:21:38;3.20;16.90
7014;DHT22;3547;50.774;12.918;2024-03-07T05:24:42;3.20;20.70
7014;DHT22;3547;50.774;12.918;2024-03-07T05:27:09;3.20;22.40
7014;DHT22;3547;50.774;12.918;2024-03-07T05:29:38;3.40;18.00
7014;DHT22;3547;50.774;12.918;2024-03-07T05:34:48;3.50;11.00
7014;DHT22;3547;50.774;12.918;2024-03-07T05:37:15;3.50;7.50
7014;DHT22;3547;50.774;12.918;2024-03-07T05:39:41;3.50;10.30
7014;DHT22;3547;50.774;12.918;2024-03-07T05:42:07;3.50;12.00
7014;DHT22;3547;50.774;12.918;2024-03-07T05:44:33;3.50;15.50
7014;DHT22;3547;50.774;12.918;2024-03-07T05:46:59;3.50;16.90
7014;DHT22;3547;50.774;12.918;2024-03-07T05:49:25;3.50;19.40
7014;DHT22;3547;50.774;12.918;2024-03-07T05:51:52;3.50;19.10
7014;DHT22;3547;50.774;12.918;2024-03-07T05:54:18;3.50;20.00
7014;DHT22;3547;50.774;12.918;2024-03-07T05:56:44;3.50;21.10
7014;DHT22;3547;50.774;12.918;2024-03-07T05:59:11;3.50;16.00
7014;DHT22;3547;50.774;12.918;2024-03-07T06:01:37;3.50;22.50
7014;DHT22;3547;50.774;12.918;2024-03-07T06:04:06;3.50;24.00
7014;DHT22;3547;50.774;12.918;2024-03-07T06:06:33;3.50;21.50
7014;DHT22;3547;50.774;12.918;2024-03-07T06:09:04;3.50;19.90
7014;DHT22;3547;50.774;12.918;2024-03-07T06:11:37;3.50;18.00
7014;DHT22;3547;50.774;12.918;2024-03-07T06:14:04;3.60;21.50
7014;DHT22;3547;50.774;12.918;2024-03-07T06:16:36;3.60;21.60
7014;DHT22;3547;50.774;12.918;2024-03-07T06:19:05;3.60;19.30
7014;DHT22;3547;50.774;12.918;2024-03-07T06:21:35;3.70;17.90
7014;DHT22;3547;50.774;12.918;2024-03-07T06:24:02;3.70;15.70
7014;DHT22;3547;50.774;12.918;2024-03-07T06:26:54;3.80;16.80
7014;DHT22;3547;50.774;12.918;2024-03-07T06:29:29;3.80;11.00
7014;DHT22;3547;50.774;12.918;2024-03-07T06:31:56;3.90;13.20
7014;DHT22;3547;50.774;12.918;2024-03-07T06:34:22;3.90;14.00
7014;DHT22;3547;50.774;12.918;2024-03-07T06:36:48;4.00;10.90
7014;DHT22;3547;50.774;12.918;2024-03-07T06:39:14;4.10;10.80
7014;DHT22;3547;50.774;12.918;2024-03-07T06:41:41;4.20;7.90
7014;DHT22;3547;50.774;12.918;2024-03-07T06:44:08;4.30;7.10
7014;DHT22;3547;50.774;12.918;2024-03-07T06:46:35;4.30;5.20
7014;DHT22;3547;50.774;12.918;2024-03-07T06:49:01;4.40;2.10
7014;DHT22;3547;50.774;12.918;2024-03-07T06:51:28;4.40;1.00
7014;DHT22;3547;50.774;12.918;2024-03-07T06:53:54;4.40;1.00
7014;DHT22;3547;50.774;12.918;2024-03-07T06:56:21;4.40;1.00
7014;DHT22;3547;50.774;12.918;2024-03-07T06:58:49;4.40;1.00
7014;DHT22;3547;50.774;12.918;2024-03-07T07:01:15;4.30;1.00
7014;DHT22;3547;50.774;12.918;2024-03-07T07:03:42;4.40;1.00
7014;DHT22;3547;50.774;12.918;2024-03-07T07:06:14;4.40;1.00
7014;DHT22;3547;50.774;12.918;2024-03-07T07:08:40;4.40;1.00
7014;DHT22;3547;50.774;12.918;2024-03-07T07:11:07;4.40;1.00
7014;DHT22;3547;50.774;12.918;2024-03-07T07:13:33;4.50;1.00
7014;DHT22;3547;50.774;12.918;2024-03-07T07:15:59;4.60;1.00
7014;DHT22;3547;50.774;12.918;2024-03-07T07:18:25;4.60;1.00
7014;DHT22;3547;50.774;12.918;2024-03-07T07:20:51;4.60;1.00
7014;DHT22;3547;50.774;12.918;2024-03-07T07:23:19;4.60;1.00
7014;DHT22;3547;50.774;12.918;2024-03-07T07:25:46;4.70;1.00
7014;DHT22;3547;50.774;12.918;2024-03-07T07:28:12;4.60;1.00
7014;DHT22;3547;50.774;12.918;2024-03-07T07:30:39;4.60;1.00
7014;DHT22;3547;50.774;12.918;2024-03-07T07:33:05;4.60;1.00
7014;DHT22;3547;50.774;12.918;2024-03-07T07:35:31;4.60;1.00
7014;DHT22;3547;50.774;12.918;2024-03-07T07:38:00;4.70;1.00
7014;DHT22;3547;50.774;12.918;2024-03-07T07:40:26;4.80;1.00
7014;DHT22;3547;50.774;12.918;2024-03-07T07:42:53;4.80;1.00
7014;DHT22;3547;50.774;12.918;2024-03-07T07:45:21;4.80;1.00
7014;DHT22;3547;50.774;12.918;2024-03-07T07:47:50;4.90;1.00
7014;DHT22;3547;50.774;12.918;2024-03-07T07:50:19;5.00;1.00
7014;DHT22;3547;50.774;12.918;2024-03-07T07:52:53;4.90;1.00
7014;DHT22;3547;50.774;12.918;2024-03-07T07:55:27;4.80;1.00
7014;DHT22;3547;50.774;12.918;2024-03-07T07:57:58;4.80;1.00
7014;DHT22;3547;50.774;12.918;2024-03-07T08:00:28;4.70;1.00
7014;DHT22;3547;50.774;12.918;2024-03-07T08:02:55;4.60;1.00
7014;DHT22;3547;50.774;12.918;2024-03-07T08:05:24;4.70;1.00
7014;DHT22;3547;50.774;12.918;2024-03-07T08:07:51;4.70;1.00
7014;DHT22;3547;50.774;12.918;2024-03-07T08:10:19;4.60;1.00
7014;DHT22;3547;50.774;12.918;2024-03-07T08:12:46;4.60;1.00
7014;DHT22;3547;50.774;12.918;2024-03-07T08:15:13;4.50;1.00
7014;DHT22;3547;50.774;12.918;2024-03-07T08:17:44;4.50;1.00
7014;DHT22;3547;50.774;12.918;2024-03-07T08:20:20;4.50;1.00
7014;DHT22;3547;50.774;12.918;2024-03-07T08:22:50;4.50;1.00
7014;DHT22;3547;50.774;12.918;2024-03-07T08:25:20;4.50;1.00
7014;DHT22;3547;50.774;12.918;2024-03-07T08:27:48;4.50;1.00
7014;DHT22;3547;50.774;12.918;2024-03-07T08:30:15;4.60;1.00
7014;DHT22;3547;50.774;12.918;2024-03-07T08:32:46;4.70;1.00
7014;DHT22;3547;50.774;12.918;2024-03-07T08:35:13;4.80;1.00
7014;DHT22;3547;50.774;12.918;2024-03-07T08:37:40;4.80;1.00
7014;DHT22;3547;50.774;12.918;2024-03-07T08:40:07;4.70;1.00
7014;DHT22;3547;50.774;12.918;2024-03-07T08:42:37;4.70;1.00
7014;DHT22;3547;50.774;12.918;2024-03-07T08:45:04;4.80;1.00
7014;DHT22;3547;50.774;12.918;2024-03-07T08:47:34;4.90;1.00
7014;DHT22;3547;50.774;12.918;2024-03-07T08:50:04;5.00;1.00
7014;DHT22;3547;50.774;12.918;2024-03-07T08:52:35;5.20;1.00
7014;DHT22;3547;50.774;12.918;2024-03-07T08:55:06;5.20;1.00
7014;DHT22;3547;50.774;12.918;2024-03-07T08:57:36;5.40;1.00
7014;DHT22;3547;50.774;12.918;2024-03-07T09:00:03;5.50;1.00
7014;DHT22;3547;50.774;12.918;2024-03-07T09:02:38;5.50;1.00
7014;DHT22;3547;50.774;12.918;2024-03-07T09:05:05;5.50;1.00
7014;DHT22;3547;50.774;12.918;2024-03-07T09:07:32;5.50;1.00
7014;DHT22;3547;50.774;12.918;2024-03-07T09:09:58;5.50;1.00
7014;DHT22;3547;50.774;12.918;2024-03-07T09:12:25;5.80;1.00
7014;DHT22;3547;50.774;12.918;2024-03-07T09:14:54;6.00;1.00
7014;DHT22;3547;50.774;12.918;2024-03-07T09:17:23;6.00;1.00
7014;DHT22;3547;50.774;12.918;2024-03-07T09:19:49;5.80;1.00
7014;DHT22;3547;50.774;12.918;2024-03-07T09:22:15;5.80;1.00
7014;DHT22;3547;50.774;12.918;2024-03-07T09:24:42;5.80;1.00
7014;DHT22;3547;50.774;12.918;2024-03-07T09:27:14;5.90;1.00
7014;DHT22;3547;50.774;12.918;2024-03-07T09:29:41;5.80;1.00
7014;DHT22;3547;50.774;12.918;2024-03-07T09:32:07;5.80;1.00
7014;DHT22;3547;50.774;12.918;2024-03-07T09:34:36;5.90;1.00
7014;DHT22;3547;50.774;12.918;2024-03-07T09:37:02;5.70;1.00
7014;DHT22;3547;50.774;12.918;2024-03-07T09:39:29;5.80;1.00
7014;DHT22;3547;50.774;12.918;2024-03-07T09:41:57;5.80;1.00
7014;DHT22;3547;50.774;12.918;2024-03-07T09:44:31;5.70;1.00
7014;DHT22;3547;50.774;12.918;2024-03-07T09:47:00;5.70;1.00
7014;DHT22;3547;50.774;12.918;2024-03-07T09:49:28;5.80;1.00
7014;DHT22;3547;50.774;12.918;2024-03-07T09:51:55;5.80;1.00
7014;DHT22;3547;50.774;12.918;2024-03-07T09:54:25;5.80;1.00
7014;DHT22;3547;50.774;12.918;2024-03-07T09:56:53;5.90;1.00
7014;DHT22;3547;50.774;12.918;2024-03-07T09:59:20;5.80;1.00
7014;DHT22;3547;50.774;12.918;2024-03-07T10:01:51;5.80;1.00
7014;DHT22;3547;50.774;12.918;2024-03-07T10:04:28;5.80;1.00
7014;DHT22;3547;50.774;12.918;2024-03-07T10:06:55;5.90;1.00
7014;DHT22;3547;50.774;12.918;2024-03-07T10:09:22;5.80;1.00
7014;DHT22;3547;50.774;12.918;2024-03-07T10:12:07;5.90;1.00
7014;DHT22;3547;50.774;12.918;2024-03-07T10:15:10;6.00;1.00
7014;DHT22;3547;50.774;12.918;2024-03-07T10:17:39;6.10;1.00
7014;DHT22;3547;50.774;12.918;2024-03-07T10:20:09;6.20;1.00
7014;DHT22;3547;50.774;12.918;2024-03-07T10:22:40;6.20;1.00
7014;DHT22;3547;50.774;12.918;2024-03-07T10:25:07;6.30;1.00
7014;DHT22;3547;50.774;12.918;2024-03-07T10:27:39;6.50;1.00
7014;DHT22;3547;50.774;12.918;2024-03-07T10:30:05;6.70;1.00
7014;DHT22;3547;50.774;12.918;2024-03-07T10:32:34;6.90;1.00
7014;DHT22;3547;50.774;12.918;2024-03-07T10:35:01;7.10;1.00
7014;DHT22;3547;50.774;12.918;2024-03-07T10:37:29;7.10;1.00
7014;DHT22;3547;50.774;12.918;2024-03-07T10:39:56;7.20;1.00
7014;DHT22;3547;50.774;12.918;2024-03-07T10:42:24;7.10;1.00
7014;DHT22;3547;50.774;12.918;2024-03-07T10:44:59;7.40;1.00
7014;DHT22;3547;50.774;12.918;2024-03-07T10:47:29;7.40;1.00
7014;DHT22;3547;50.774;12.918;2024-03-07T11:01:02;7.50;1.00
7014;DHT22;3547;50.774;12.918;2024-03-07T11:03:37;7.40;1.00
7014;DHT22;3547;50.774;12.918;2024-03-07T11:06:06;7.40;1.00
7014;DHT22;3547;50.774;12.918;2024-03-07T11:08:37;7.30;1.00
7014;DHT22;3547;50.774;12.918;2024-03-07T11:11:04;7.30;1.00
7014;DHT22;3547;50.774;12.918;2024-03-07T11:13:33;7.20;1.00
7014;DHT22;3547;50.774;12.918;2024-03-07T11:16:00;7.20;1.00
7014;DHT22;3547;50.774;12.918;2024-03-07T11:18:27;7.30;1.00
7014;DHT22;3547;50.774;12.918;2024-03-07T11:20:54;7.40;1.00
7014;DHT22;3547;50.774;12.918;2024-03-07T11:23:30;7.30;1.00
7014;DHT22;3547;50.774;12.918;2024-03-07T11:26:06;7.50;1.00
7014;DHT22;3547;50.774;12.918;2024-03-07T11:28:42;7.60;1.00
7014;DHT22;3547;50.774;12.918;2024-03-07T11:31:12;7.60;1.00
7014;DHT22;3547;50.774;12.918;2024-03-07T11:33:39;7.70;1.00
7014;DHT22;3547;50.774;12.918;2024-03-07T11:36:10;7.60;1.00
7014;DHT22;3547;50.774;12.918;2024-03-07T11:38:51;7.60;1.00
7014;DHT22;3547;50.774;12.918;2024-03-07T11:41:20;7.70;1.00
7014;DHT22;3547;50.774;12.918;2024-03-07T11:43:47;7.70;1.00
7014;DHT22;3547;50.774;12.918;2024-03-07T11:46:13;7.80;1.00
7014;DHT22;3547;50.774;12.918;2024-03-07T11:48:42;7.80;1.00
7014;DHT22;3547;50.774;12.918;2024-03-07T11:51:13;7.90;1.00
7014;DHT22;3547;50.774;12.918;2024-03-07T11:53:39;7.90;1.00
7014;DHT22;3547;50.774;12.918;2024-03-07T11:56:05;7.90;1.00
7014;DHT22;3547;50.774;12.918;2024-03-07T11:58:44;7.90;1.00
7014;DHT22;3547;50.774;12.918;2024-03-07T12:01:10;7.80;1.00
7014;DHT22;3547;50.774;12.918;2024-03-07T12:03:39;7.70;1.00
7014;DHT22;3547;50.774;12.918;2024-03-07T12:06:08;7.80;1.00
7014;DHT22;3547;50.774;12.918;2024-03-07T12:08:38;7.90;1.00
7014;DHT22;3547;50.774;12.918;2024-03-07T12:11:05;7.80;1.00
7014;DHT22;3547;50.774;12.918;2024-03-07T12:13:32;7.80;1.00
7014;DHT22;3547;50.774;12.918;2024-03-07T12:15:58;7.90;1.00
7014;DHT22;3547;50.774;12.918;2024-03-07T12:18:25;8.00;1.00
7014;DHT22;3547;50.774;12.918;2024-03-07T12:20:52;8.40;1.00
7014;DHT22;3547;50.774;12.918;2024-03-07T12:23:24;8.50;1.00
7014;DHT22;3547;50.774;12.918;2024-03-07T12:26:02;8.40;1.00
7014;DHT22;3547;50.774;12.918;2024-03-07T12:28:29;8.40;1.00
7014;DHT22;3547;50.774;12.918;2024-03-07T12:30:59;8.50;1.00
7014;DHT22;3547;50.774;12.918;2024-03-07T12:33:36;8.60;1.00
7014;DHT22;3547;50.774;12.918;2024-03-07T12:36:05;9.00;1.00
7014;DHT22;3547;50.774;12.918;2024-03-07T12:38:36;9.40;1.00
7014;DHT22;3547;50.774;12.918;2024-03-07T12:41:10;9.40;1.00
7014;DHT22;3547;50.774;12.918;2024-03-07T12:43:42;9.50;1.00
7014;DHT22;3547;50.774;12.918;2024-03-07T12:46:10;9.40;1.00
7014;DHT22;3547;50.774;12.918;2024-03-07T12:48:41;9.40;1.00
7014;DHT22;3547;50.774;12.918;2024-03-07T12:51:10;9.20;1.00
7014;DHT22;3547;50.774;12.918;2024-03-07T12:53:37;9.20;1.00
7014;DHT22;3547;50.774;12.918;2024-03-07T12:56:03;9.30;1.00
7014;DHT22;3547;50.774;12.918;2024-03-07T12:58:29;9.40;1.00
7014;DHT22;3547;50.774;12.918;2024-03-07T13:00:56;9.20;1.00
7014;DHT22;3547;50.774;12.918;2024-03-07T13:03:23;9.20;1.00
7014;DHT22;3547;50.774;12.918;2024-03-07T13:05:56;9.40;1.00
7014;DHT22;3547;50.774;12.918;2024-03-07T13:08:27;9.50;1.00
7014;DHT22;3547;50.774;12.918;2024-03-07T13:10:55;9.50;1.00
7014;DHT22;3547;50.774;12.918;2024-03-07T13:13:21;9.50;1.00
7014;DHT22;3547;50.774;12.918;2024-03-07T13:15:48;9.30;1.00
7014;DHT22;3547;50.774;12.918;2024-03-07T13:18:14;9.00;1.00
7014;DHT22;3547;50.774;12.918;2024-03-07T13:20:40;9.00;1.00
7014;DHT22;3547;50.774;12.918;2024-03-07T13:23:09;8.90;1.00
7014;DHT22;3547;50.774;12.918;2024-03-07T13:25:36;8.80;1.00
7014;DHT22;3547;50.774;12.918;2024-03-07T13:28:06;8.70;1.00
7014;DHT22;3547;50.774;12.918;2024-03-07T13:30:37;8.60;1.00
7014;DHT22;3547;50.774;12.918;2024-03-07T13:33:03;8.50;1.00
7014;DHT22;3547;50.774;12.918;2024-03-07T13:35:30;8.50;1.00
7014;DHT22;3547;50.774;12.918;2024-03-07T13:37:56;8.50;1.00
7014;DHT22;3547;50.774;12.918;2024-03-07T13:40:24;8.40;1.00
7014;DHT22;3547;50.774;12.918;2024-03-07T13:45:21;8.10;1.00
7014;DHT22;3547;50.774;12.918;2024-03-07T13:47:48;8.10;1.00
7014;DHT22;3547;50.774;12.918;2024-03-07T13:50:18;8.20;1.00
7014;DHT22;3547;50.774;12.918;2024-03-07T13:52:48;8.30;1.00
7014;DHT22;3547;50.774;12.918;2024-03-07T14:02:14;8.20;1.00
7014;DHT22;3547;50.774;12.918;2024-03-07T14:07:30;8.40;1.00
7014;DHT22;3547;50.774;12.918;2024-03-07T14:18:12;8.60;1.00
7014;DHT22;3547;50.774;12.918;2024-03-07T14:23:53;8.50;1.00
7014;DHT22;3547;50.774;12.918;2024-03-07T14:32:18;8.40;1.00
7014;DHT22;3547;50.774;12.918;2024-03-07T14:35:02;8.20;1.00
7014;DHT22;3547;50.774;12.918;2024-03-07T14:37:46;8.00;1.00
7014;DHT22;3547;50.774;12.918;2024-03-07T14:40:16;8.00;1.00
7014;DHT22;3547;50.774;12.918;2024-03-07T14:42:49;8.00;1.00
7014;DHT22;3547;50.774;12.918;2024-03-07T14:45:21;7.90;1.00
7014;DHT22;3547;50.774;12.918;2024-03-07T14:47:49;7.80;1.00
7014;DHT22;3547;50.774;12.918;2024-03-07T14:50:19;7.60;1.00
7014;DHT22;3547;50.774;12.918;2024-03-07T14:52:49;7.70;1.00
7014;DHT22;3547;50.774;12.918;2024-03-07T14:55:16;7.60;1.00
7014;DHT22;3547;50.774;12.918;2024-03-07T14:57:45;7.40;1.00
7014;DHT22;3547;50.774;12.918;2024-03-07T15:00:20;7.30;1.00
7014;DHT22;3547;50.774;12.918;2024-03-07T15:02:53;7.10;1.00
7014;DHT22;3547;50.774;12.918;2024-03-07T15:05:23;7.00;1.00
7014;DHT22;3547;50.774;12.918;2024-03-07T15:07:51;6.80;1.00
7014;DHT22;3547;50.774;12.918;2024-03-07T15:10:21;6.80;1.00
7014;DHT22;3547;50.774;12.918;2024-03-07T15:12:49;6.90;1.00
7014;DHT22;3547;50.774;12.918;2024-03-07T15:15:17;6.90;1.00
7014;DHT22;3547;50.774;12.918;2024-03-07T15:17:46;6.80;1.00
7014;DHT22;3547;50.774;12.918;2024-03-07T15:20:12;6.80;1.00
7014;DHT22;3547;50.774;12.918;2024-03-07T15:22:54;6.60;1.00
7014;DHT22;3547;50.774;12.918;2024-03-07T15:25:22;6.60;1.00
7014;DHT22;3547;50.774;12.918;2024-03-07T15:27:49;6.50;1.00
7014;DHT22;3547;50.774;12.918;2024-03-07T15:30:16;6.40;1.00
7014;DHT22;3547;50.774;12.918;2024-03-07T15:32:44;6.40;1.00
7014;DHT22;3547;50.774;12.918;2024-03-07T15:35:10;6.40;1.00
7014;DHT22;3547;50.774;12.918;2024-03-07T15:37:39;6.30;1.00
7014;DHT22;3547;50.774;12.918;2024-03-07T15:40:08;6.20;1.00
7014;DHT22;3547;50.774;12.918;2024-03-07T15:42:47;6.10;1.00
7014;DHT22;3547;50.774;12.918;2024-03-07T15:45:22;6.00;1.00
7014;DHT22;3547;50.774;12.918;2024-03-07T15:47:52;6.00;1.00
7014;DHT22;3547;50.774;12.918;2024-03-07T15:50:19;5.90;1.00
7014;DHT22;3547;50.774;12.918;2024-03-07T15:52:47;5.80;1.00
7014;DHT22;3547;50.774;12.918;2024-03-07T15:55:13;5.70;1.00
7014;DHT22;3547;50.774;12.918;2024-03-07T15:57:46;5.60;1.00
7014;DHT22;3547;50.774;12.918;2024-03-07T16:00:18;5.60;1.00
7014;DHT22;3547;50.774;12.918;2024-03-07T16:02:57;5.60;1.00
7014;DHT22;3547;50.774;12.918;2024-03-07T16:05:25;5.40;1.00
7014;DHT22;3547;50.774;12.918;2024-03-07T16:07:52;5.30;1.00
7014;DHT22;3547;50.774;12.918;2024-03-07T16:10:23;5.30;1.00
7014;DHT22;3547;50.774;12.918;2024-03-07T16:12:50;5.20;1.00
7014;DHT22;3547;50.774;12.918;2024-03-07T16:15:17;5.10;1.00
7014;DHT22;3547;50.774;12.918;2024-03-07T16:17:46;5.10;1.00
7014;DHT22;3547;50.774;12.918;2024-03-07T16:20:12;5.00;1.00
7014;DHT22;3547;50.774;12.918;2024-03-07T16:22:43;5.00;1.00
7014;DHT22;3547;50.774;12.918;2024-03-07T16:25:11;4.80;1.00
7014;DHT22;3547;50.774;12.918;2024-03-07T16:27:41;4.60;1.00
7014;DHT22;3547;50.774;12.918;2024-03-07T16:30:12;4.50;1.00
7014;DHT22;3547;50.774;12.918;2024-03-07T16:32:43;4.40;1.00
7014;DHT22;3547;50.774;12.918;2024-03-07T16:35:14;4.20;1.00
7014;DHT22;3547;50.774;12.918;2024-03-07T16:37:43;4.10;1.00
7014;DHT22;3547;50.774;12.918;2024-03-07T16:40:11;4.00;1.00
7014;DHT22;3547;50.774;12.918;2024-03-07T16:42:39;3.80;1.00
7014;DHT22;3547;50.774;12.918;2024-03-07T16:47:40;3.80;1.00
7014;DHT22;3547;50.774;12.918;2024-03-07T16:50:07;3.80;1.00
7014;DHT22;3547;50.774;12.918;2024-03-07T16:52:38;3.70;1.00
7014;DHT22;3547;50.774;12.918;2024-03-07T16:55:06;3.70;1.00
7014;DHT22;3547;50.774;12.918;2024-03-07T16:57:39;3.60;1.00
7014;DHT22;3547;50.774;12.918;2024-03-07T17:00:13;3.50;1.00
7014;DHT22;3547;50.774;12.918;2024-03-07T17:03:05;3.50;1.00
7014;DHT22;3547;50.774;12.918;2024-03-07T17:05:34;3.40;1.00
7014;DHT22;3547;50.774;12.918;2024-03-07T17:08:02;3.40;1.00
7014;DHT22;3547;50.774;12.918;2024-03-07T17:10:35;3.40;1.00
7014;DHT22;3547;50.774;12.918;2024-03-07T17:13:02;3.30;1.00